sensor_id;sensor_type;location;lat;lon;timestamp;temperature;humidity
5176;DHT22;2607;50.934;6.934;2023-05-31T00:02:12;16.30;99.90
5176;DHT22;2607;50.934;6.934;2023-05-31T00:04:38;16.30;99.90
5176;DHT22;2607;50.934;6.934;2023-05-31T00:07:05;16.30;99.90
5176;DHT22;2607;50.934;6.934;2023-05-31T00:09:31;16.30;99.90
5176;DHT22;2607;50.934;6.934;2023-05-31T00:11:57;16.30;99.90
5176;DHT22;2607;50.934;6.934;2023-05-31T00:14:22;16.20;99.90
5176;DHT22;2607;50.934;6.934;2023-05-31T00:16:48;16.20;99.90
5176;DHT22;2607;50.934;6.934;2023-05-31T00:19:13;16.20;99.90
5176;DHT22;2607;50.934;6.934;2023-05-31T00:21:39;16.20;99.90
5176;DHT22;2607;50.934;6.934;2023-05-31T00:24:05;16.20;99.90
5176;DHT22;2607;50.934;6.934;2023-05-31T00:26:30;16.20;99.90
5176;DHT22;2607;50.934;6.934;2023-05-31T00:28:56;16.10;99.90
5176;DHT22;2607;50.934;6.934;2023-05-31T00:31:21;16.10;99.90
5176;DHT22;2607;50.934;6.934;2023-05-31T00:33:47;16.10;99.90
5176;DHT22;2607;50.934;6.934;2023-05-31T00:36:12;16.10;99.90
5176;DHT22;2607;50.934;6.934;2023-05-31T00:38:38;16.10;99.90
5176;DHT22;2607;50.934;6.934;2023-05-31T00:41:06;16.10;99.90
5176;DHT22;2607;50.934;6.934;2023-05-31T00:43:31;16.10;99.90
5176;DHT22;2607;50.934;6.934;2023-05-31T00:45:57;16.00;99.90
5176;DHT22;2607;50.934;6.934;2023-05-31T00:48:22;16.00;99.90
5176;DHT22;2607;50.934;6.934;2023-05-31T00:50:49;16.00;99.90
5176;DHT22;2607;50.934;6.934;2023-05-31T00:53:15;16.00;99.90
5176;DHT22;2607;50.934;6.934;2023-05-31T00:55:41;16.00;99.90
5176;DHT22;2607;50.934;6.934;2023-05-31T00:58:06;16.00;99.90
5176;DHT22;2607;50.934;6.934;2023-05-31T01:00:32;16.00;99.90
5176;DHT22;2607;50.934;6.934;2023-05-31T01:02:57;15.90;99.90
5176;DHT22;2607;50.934;6.934;2023-05-31T01:05:28;15.90;99.90
5176;DHT22;2607;50.934;6.934;2023-05-31T01:07:54;15.90;99.90
5176;DHT22;2607;50.934;6.934;2023-05-31T01:10:20;15.90;99.90
5176;DHT22;2607;50.934;6.934;2023-05-31T01:13:01;15.90;99.90
5176;DHT22;2607;50.934;6.934;2023-05-31T01:15:46;15.80;99.90
5176;DHT22;2607;50.934;6.934;2023-05-31T01:18:36;15.80;99.90
5176;DHT22;2607;50.934;6.934;2023-05-31T01:21:04;15.80;99.90
5176;DHT22;2607;50.934;6.934;2023-05-31T01:26:30;15.80;99.90
5176;DHT22;2607;50.934;6.934;2023-05-31T01:29:13;15.80;99.90
5176;DHT22;2607;50.934;6.934;2023-05-31T01:31:40;15.70;99.90
5176;DHT22;2607;50.934;6.934;2023-05-31T01:34:06;15.70;99.90
5176;DHT22;2607;50.934;6.934;2023-05-31T01:36:32;15.70;99.90
5176;DHT22;2607;50.934;6.934;2023-05-31T01:38:58;15.70;99.90
5176;DHT22;2607;50.934;6.934;2023-05-31T01:41:26;15.60;99.90
5176;DHT22;2607;50.934;6.934;2023-05-31T01:43:54;15.60;99.90
5176;DHT22;2607;50.934;6.934;2023-05-31T01:46:20;15.60;99.90
5176;DHT22;2607;50.934;6.934;2023-05-31T01:48:46;15.60;99.90
5176;DHT22;2607;50.934;6.934;2023-05-31T01:51:14;15.60;99.90
5176;DHT22;2607;50.934;6.934;2023-05-31T01:53:41;15.60;99.90
5176;DHT22;2607;50.934;6.934;2023-05-31T01:56:10;15.50;99.90
5176;DHT22;2607;50.934;6.934;2023-05-31T01:58:40;15.50;99.90
5176;DHT22;2607;50.934;6.934;2023-05-31T02:01:09;15.50;99.90
5176;DHT22;2607;50.934;6.934;2023-05-31T02:03:36;15.50;99.90
5176;DHT22;2607;50.934;6.934;2023-05-31T02:06:02;15.50;99.90
5176;DHT22;2607;50.934;6.934;2023-05-31T02:08:28;15.50;99.90
5176;DHT22;2607;50.934;6.934;2023-05-31T02:10:54;15.50;99.90
5176;DHT22;2607;50.934;6.934;2023-05-31T02:13:23;15.40;99.90
5176;DHT22;2607;50.934;6.934;2023-05-31T02:15:49;15.40;99.90
5176;DHT22;2607;50.934;6.934;2023-05-31T02:18:15;15.40;99.90
5176;DHT22;2607;50.934;6.934;2023-05-31T02:20:43;15.40;99.90
5176;DHT22;2607;50.934;6.934;2023-05-31T02:23:09;15.30;99.90
5176;DHT22;2607;50.934;6.934;2023-05-31T02:25:34;15.30;99.90
5176;DHT22;2607;50.934;6.934;2023-05-31T02:28:00;15.30;99.90
5176;DHT22;2607;50.934;6.934;2023-05-31T02:30:26;15.30;99.90
5176;DHT22;2607;50.934;6.934;2023-05-31T02:32:53;15.30;99.90
5176;DHT22;2607;50.934;6.934;2023-05-31T02:35:18;15.30;99.90
5176;DHT22;2607;50.934;6.934;2023-05-31T02:37:44;15.20;99.90
5176;DHT22;2607;50.934;6.934;2023-05-31T02:40:10;15.20;99.90
5176;DHT22;2607;50.934;6.934;2023-05-31T02:42:39;15.20;99.90
5176;DHT22;2607;50.934;6.934;2023-05-31T02:45:06;15.20;99.90
5176;DHT22;2607;50.934;6.934;2023-05-31T02:47:32;15.20;99.90
5176;DHT22;2607;50.934;6.934;2023-05-31T02:49:57;15.20;99.90
5176;DHT22;2607;50.934;6.934;2023-05-31T02:52:24;15.20;99.90
5176;DHT22;2607;50.934;6.934;2023-05-31T02:54:50;15.10;99.90
5176;DHT22;2607;50.934;6.934;2023-05-31T02:57:15;15.10;99.90
5176;DHT22;2607;50.934;6.934;2023-05-31T02:59:45;15.10;99.90
5176;DHT22;2607;50.934;6.934;2023-05-31T03:02:11;15.10;99.90
5176;DHT22;2607;50.934;6.934;2023-05-31T03:04:36;15.10;99.90
5176;DHT22;2607;50.934;6.934;2023-05-31T03:07:02;15.10;99.90
5176;DHT22;2607;50.934;6.934;2023-05-31T03:09:29;15.10;99.90
5176;DHT22;2607;50.934;6.934;2023-05-31T03:11:55;15.10;99.90
5176;DHT22;2607;50.934;6.934;2023-05-31T03:14:20;15.10;99.90
5176;DHT22;2607;50.934;6.934;2023-05-31T03:16:46;15.10;99.90
5176;DHT22;2607;50.934;6.934;2023-05-31T03:19:11;15.10;99.90
5176;DHT22;2607;50.934;6.934;2023-05-31T03:21:40;15.10;99.90
5176;DHT22;2607;50.934;6.934;2023-05-31T03:24:05;15.00;99.90
5176;DHT22;2607;50.934;6.934;2023-05-31T03:26:31;15.00;99.90
5176;DHT22;2607;50.934;6.934;2023-05-31T03:28:56;15.00;99.90
5176;DHT22;2607;50.934;6.934;2023-05-31T03:31:22;15.00;99.90
5176;DHT22;2607;50.934;6.934;2023-05-31T03:33:49;15.00;99.90
5176;DHT22;2607;50.934;6.934;2023-05-31T03:36:15;15.00;99.90
5176;DHT22;2607;50.934;6.934;2023-05-31T03:38:40;15.00;99.90
5176;DHT22;2607;50.934;6.934;2023-05-31T03:41:06;15.00;99.90
5176;DHT22;2607;50.934;6.934;2023-05-31T03:43:31;14.90;99.90
5176;DHT22;2607;50.934;6.934;2023-05-31T03:45:57;14.90;99.90
5176;DHT22;2607;50.934;6.934;2023-05-31T03:48:29;14.80;99.90
5176;DHT22;2607;50.934;6.934;2023-05-31T03:50:56;14.80;99.90
5176;DHT22;2607;50.934;6.934;2023-05-31T03:53:21;14.80;99.90
5176;DHT22;2607;50.934;6.934;2023-05-31T03:55:47;14.70;99.90
5176;DHT22;2607;50.934;6.934;2023-05-31T03:58:12;14.70;99.90
5176;DHT22;2607;50.934;6.934;2023-05-31T04:00:38;14.70;99.90
5176;DHT22;2607;50.934;6.934;2023-05-31T04:03:04;14.70;99.90
5176;DHT22;2607;50.934;6.934;2023-05-31T04:05:29;14.60;99.90
5176;DHT22;2607;50.934;6.934;2023-05-31T04:07:56;14.70;99.90
5176;DHT22;2607;50.934;6.934;2023-05-31T04:10:21;14.70;99.90
5176;DHT22;2607;50.934;6.934;2023-05-31T04:12:47;14.70;99.90
5176;DHT22;2607;50.934;6.934;2023-05-31T04:15:12;14.70;99.90
5176;DHT22;2607;50.934;6.934;2023-05-31T04:17:38;14.70;99.90
5176;DHT22;2607;50.934;6.934;2023-05-31T04:20:04;14.70;99.90
5176;DHT22;2607;50.934;6.934;2023-05-31T04:22:33;14.70;99.90
5176;DHT22;2607;50.934;6.934;2023-05-31T04:24:59;14.60;99.90
5176;DHT22;2607;50.934;6.934;2023-05-31T04:27:24;14.60;99.90
5176;DHT22;2607;50.934;6.934;2023-05-31T04:29:51;14.60;99.90
5176;DHT22;2607;50.934;6.934;2023-05-31T04:32:16;14.60;99.90
5176;DHT22;2607;50.934;6.934;2023-05-31T04:34:42;14.50;99.90
5176;DHT22;2607;50.934;6.934;2023-05-31T04:37:08;14.50;99.90
5176;DHT22;2607;50.934;6.934;2023-05-31T04:39:35;14.50;99.90
5176;DHT22;2607;50.934;6.934;2023-05-31T04:42:01;14.50;99.90
5176;DHT22;2607;50.934;6.934;2023-05-31T04:44:28;14.50;99.90
5176;DHT22;2607;50.934;6.934;2023-05-31T04:46:53;14.50;99.90
5176;DHT22;2607;50.934;6.934;2023-05-31T04:49:19;14.50;99.90
5176;DHT22;2607;50.934;6.934;2023-05-31T04:51:45;14.50;99.90
5176;DHT22;2607;50.934;6.934;2023-05-31T04:54:10;14.50;99.90
5176;DHT22;2607;50.934;6.934;2023-05-31T04:56:36;14.50;99.90
5176;DHT22;2607;50.934;6.934;2023-05-31T04:59:02;14.50;99.90
5176;DHT22;2607;50.934;6.934;2023-05-31T05:01:28;14.50;99.90
5176;DHT22;2607;50.934;6.934;2023-05-31T05:03:53;14.50;99.90
5176;DHT22;2607;50.934;6.934;2023-05-31T05:06:19;14.60;99.90
5176;DHT22;2607;50.934;6.934;2023-05-31T05:08:46;14.60;99.90
5176;DHT22;2607;50.934;6.934;2023-05-31T05:11:11;14.60;99.90
5176;DHT22;2607;50.934;6.934;2023-05-31T05:13:37;14.60;99.90
5176;DHT22;2607;50.934;6.934;2023-05-31T05:16:03;14.70;99.90
5176;DHT22;2607;50.934;6.934;2023-05-31T05:18:29;14.70;99.90
5176;DHT22;2607;50.934;6.934;2023-05-31T05:20:55;14.70;99.90
5176;DHT22;2607;50.934;6.934;2023-05-31T05:23:22;14.80;99.90
5176;DHT22;2607;50.934;6.934;2023-05-31T05:25:48;14.80;99.90
5176;DHT22;2607;50.934;6.934;2023-05-31T05:28:13;14.80;99.90
5176;DHT22;2607;50.934;6.934;2023-05-31T05:30:39;14.80;99.90
5176;DHT22;2607;50.934;6.934;2023-05-31T05:33:05;14.80;99.90
5176;DHT22;2607;50.934;6.934;2023-05-31T05:35:31;14.90;99.90
5176;DHT22;2607;50.934;6.934;2023-05-31T05:37:57;14.90;99.90
5176;DHT22;2607;50.934;6.934;2023-05-31T05:40:23;14.90;99.90
5176;DHT22;2607;50.934;6.934;2023-05-31T05:42:49;14.90;99.90
5176;DHT22;2607;50.934;6.934;2023-05-31T05:45:15;15.00;99.90
5176;DHT22;2607;50.934;6.934;2023-05-31T05:47:41;15.00;99.90
5176;DHT22;2607;50.934;6.934;2023-05-31T05:50:11;15.00;99.90
5176;DHT22;2607;50.934;6.934;2023-05-31T05:52:37;15.00;99.90
5176;DHT22;2607;50.934;6.934;2023-05-31T05:55:03;15.10;99.90
5176;DHT22;2607;50.934;6.934;2023-05-31T05:57:29;15.10;99.90
5176;DHT22;2607;50.934;6.934;2023-05-31T05:59:56;15.20;99.90
5176;DHT22;2607;50.934;6.934;2023-05-31T06:02:21;15.20;99.90
5176;DHT22;2607;50.934;6.934;2023-05-31T06:04:47;15.30;99.90
5176;DHT22;2607;50.934;6.934;2023-05-31T06:07:12;15.30;99.90
5176;DHT22;2607;50.934;6.934;2023-05-31T06:09:38;15.30;99.90
5176;DHT22;2607;50.934;6.934;2023-05-31T06:12:04;15.40;99.90
5176;DHT22;2607;50.934;6.934;2023-05-31T06:14:30;15.40;99.90
5176;DHT22;2607;50.934;6.934;2023-05-31T06:16:55;15.50;99.90
5176;DHT22;2607;50.934;6.934;2023-05-31T06:19:21;15.50;99.90
5176;DHT22;2607;50.934;6.934;2023-05-31T06:21:46;15.60;99.90
5176;DHT22;2607;50.934;6.934;2023-05-31T06:24:14;15.60;99.90
5176;DHT22;2607;50.934;6.934;2023-05-31T06:26:39;15.70;99.90
5176;DHT22;2607;50.934;6.934;2023-05-31T06:29:05;15.70;99.90
5176;DHT22;2607;50.934;6.934;2023-05-31T06:31:30;15.80;99.90
5176;DHT22;2607;50.934;6.934;2023-05-31T06:33:56;15.80;99.90
5176;DHT22;2607;50.934;6.934;2023-05-31T06:36:22;15.80;99.90
5176;DHT22;2607;50.934;6.934;2023-05-31T06:38:47;15.80;99.90
5176;DHT22;2607;50.934;6.934;2023-05-31T06:41:13;15.90;99.90
5176;DHT22;2607;50.934;6.934;2023-05-31T06:43:39;15.90;99.90
5176;DHT22;2607;50.934;6.934;2023-05-31T06:46:04;16.00;99.90
5176;DHT22;2607;50.934;6.934;2023-05-31T06:48:33;16.00;99.90
5176;DHT22;2607;50.934;6.934;2023-05-31T06:50:58;16.00;99.90
5176;DHT22;2607;50.934;6.934;2023-05-31T06:53:24;16.10;99.90
5176;DHT22;2607;50.934;6.934;2023-05-31T06:55:51;16.20;99.90
5176;DHT22;2607;50.934;6.934;2023-05-31T06:58:17;16.20;99.90
5176;DHT22;2607;50.934;6.934;2023-05-31T07:00:42;16.30;99.90
5176;DHT22;2607;50.934;6.934;2023-05-31T07:03:08;16.30;99.90
5176;DHT22;2607;50.934;6.934;2023-05-31T07:05:34;16.30;99.90
5176;DHT22;2607;50.934;6.934;2023-05-31T07:07:59;16.30;99.90
5176;DHT22;2607;50.934;6.934;2023-05-31T07:10:25;16.40;99.90
5176;DHT22;2607;50.934;6.934;2023-05-31T07:12:52;16.40;99.90
5176;DHT22;2607;50.934;6.934;2023-05-31T07:15:19;16.50;99.90
5176;DHT22;2607;50.934;6.934;2023-05-31T07:17:44;16.60;99.90
5176;DHT22;2607;50.934;6.934;2023-05-31T07:20:10;16.60;99.90
5176;DHT22;2607;50.934;6.934;2023-05-31T07:22:37;16.70;99.90
5176;DHT22;2607;50.934;6.934;2023-05-31T07:25:03;16.80;99.90
5176;DHT22;2607;50.934;6.934;2023-05-31T07:27:29;16.80;99.90
5176;DHT22;2607;50.934;6.934;2023-05-31T07:29:55;16.90;99.90
5176;DHT22;2607;50.934;6.934;2023-05-31T07:32:21;16.90;99.90
5176;DHT22;2607;50.934;6.934;2023-05-31T07:34:47;16.90;99.90
5176;DHT22;2607;50.934;6.934;2023-05-31T07:37:13;17.10;99.50
5176;DHT22;2607;50.934;6.934;2023-05-31T07:39:38;17.10;99.10
5176;DHT22;2607;50.934;6.934;2023-05-31T07:42:04;17.20;98.60
5176;DHT22;2607;50.934;6.934;2023-05-31T07:44:30;17.20;98.40
5176;DHT22;2607;50.934;6.934;2023-05-31T07:46:55;17.30;98.30
5176;DHT22;2607;50.934;6.934;2023-05-31T07:49:21;17.40;98.10
5176;DHT22;2607;50.934;6.934;2023-05-31T07:51:47;17.50;98.10
5176;DHT22;2607;50.934;6.934;2023-05-31T07:54:12;17.50;97.90
5176;DHT22;2607;50.934;6.934;2023-05-31T07:56:38;17.60;97.60
5176;DHT22;2607;50.934;6.934;2023-05-31T07:59:04;17.60;97.30
5176;DHT22;2607;50.934;6.934;2023-05-31T08:01:29;17.70;97.10
5176;DHT22;2607;50.934;6.934;2023-05-31T08:04:08;17.80;96.80
5176;DHT22;2607;50.934;6.934;2023-05-31T08:06:34;17.80;96.50
5176;DHT22;2607;50.934;6.934;2023-05-31T08:09:00;17.90;96.30
5176;DHT22;2607;50.934;6.934;2023-05-31T08:11:27;17.90;96.00
5176;DHT22;2607;50.934;6.934;2023-05-31T08:13:52;18.00;95.40
5176;DHT22;2607;50.934;6.934;2023-05-31T08:16:18;18.10;95.20
5176;DHT22;2607;50.934;6.934;2023-05-31T08:18:44;18.20;95.10
5176;DHT22;2607;50.934;6.934;2023-05-31T08:21:10;18.30;94.50
5176;DHT22;2607;50.934;6.934;2023-05-31T08:23:36;18.30;94.30
5176;DHT22;2607;50.934;6.934;2023-05-31T08:26:02;18.40;94.30
5176;DHT22;2607;50.934;6.934;2023-05-31T08:28:27;18.50;94.20
5176;DHT22;2607;50.934;6.934;2023-05-31T08:30:55;18.60;93.50
5176;DHT22;2607;50.934;6.934;2023-05-31T08:33:21;18.70;93.10
5176;DHT22;2607;50.934;6.934;2023-05-31T08:35:47;18.80;92.70
5176;DHT22;2607;50.934;6.934;2023-05-31T08:38:12;18.90;92.60
5176;DHT22;2607;50.934;6.934;2023-05-31T08:40:39;18.90;92.60
5176;DHT22;2607;50.934;6.934;2023-05-31T08:43:09;19.00;92.40
5176;DHT22;2607;50.934;6.934;2023-05-31T08:45:42;19.10;92.20
5176;DHT22;2607;50.934;6.934;2023-05-31T08:50:51;19.20;91.40
5176;DHT22;2607;50.934;6.934;2023-05-31T08:53:17;19.30;91.20
5176;DHT22;2607;50.934;6.934;2023-05-31T08:55:45;19.40;91.20
5176;DHT22;2607;50.934;6.934;2023-05-31T08:58:13;19.40;91.20
5176;DHT22;2607;50.934;6.934;2023-05-31T09:00:38;19.50;90.90
5176;DHT22;2607;50.934;6.934;2023-05-31T09:03:09;19.60;90.80
5176;DHT22;2607;50.934;6.934;2023-05-31T09:05:35;19.70;90.50
5176;DHT22;2607;50.934;6.934;2023-05-31T09:08:01;19.80;90.10
5176;DHT22;2607;50.934;6.934;2023-05-31T09:10:26;19.90;88.80
5176;DHT22;2607;50.934;6.934;2023-05-31T09:12:54;20.00;87.00
5176;DHT22;2607;50.934;6.934;2023-05-31T09:15:22;20.10;87.20
5176;DHT22;2607;50.934;6.934;2023-05-31T09:17:48;20.10;87.10
5176;DHT22;2607;50.934;6.934;2023-05-31T09:20:14;20.20;86.90
5176;DHT22;2607;50.934;6.934;2023-05-31T09:22:40;20.30;86.80
5176;DHT22;2607;50.934;6.934;2023-05-31T09:25:05;20.50;86.40
5176;DHT22;2607;50.934;6.934;2023-05-31T09:27:37;20.60;85.60
5176;DHT22;2607;50.934;6.934;2023-05-31T09:30:11;20.70;84.70
5176;DHT22;2607;50.934;6.934;2023-05-31T09:32:37;20.90;83.10
5176;DHT22;2607;50.934;6.934;2023-05-31T09:35:16;21.00;82.70
5176;DHT22;2607;50.934;6.934;2023-05-31T09:37:47;21.10;81.60
5176;DHT22;2607;50.934;6.934;2023-05-31T09:40:14;21.30;80.10
5176;DHT22;2607;50.934;6.934;2023-05-31T09:42:47;21.40;79.50
5176;DHT22;2607;50.934;6.934;2023-05-31T09:45:13;21.60;78.50
5176;DHT22;2607;50.934;6.934;2023-05-31T09:47:39;21.70;78.20
5176;DHT22;2607;50.934;6.934;2023-05-31T09:50:09;21.80;76.40
5176;DHT22;2607;50.934;6.934;2023-05-31T09:52:35;21.90;76.20
5176;DHT22;2607;50.934;6.934;2023-05-31T09:55:11;22.00;75.60
5176;DHT22;2607;50.934;6.934;2023-05-31T09:57:39;22.20;74.50
5176;DHT22;2607;50.934;6.934;2023-05-31T10:00:10;22.30;71.20
5176;DHT22;2607;50.934;6.934;2023-05-31T10:02:44;22.40;69.50
5176;DHT22;2607;50.934;6.934;2023-05-31T10:05:11;22.50;68.80
5176;DHT22;2607;50.934;6.934;2023-05-31T10:07:41;22.60;68.50
5176;DHT22;2607;50.934;6.934;2023-05-31T10:10:08;22.60;68.30
5176;DHT22;2607;50.934;6.934;2023-05-31T10:12:42;22.70;67.50
5176;DHT22;2607;50.934;6.934;2023-05-31T10:15:12;22.70;66.90
5176;DHT22;2607;50.934;6.934;2023-05-31T10:17:45;22.80;67.10
5176;DHT22;2607;50.934;6.934;2023-05-31T10:20:15;22.90;66.70
5176;DHT22;2607;50.934;6.934;2023-05-31T10:22:43;22.90;66.30
5176;DHT22;2607;50.934;6.934;2023-05-31T10:25:13;22.90;65.50
5176;DHT22;2607;50.934;6.934;2023-05-31T10:27:44;23.10;64.30
5176;DHT22;2607;50.934;6.934;2023-05-31T10:30:12;23.10;65.00
5176;DHT22;2607;50.934;6.934;2023-05-31T10:32:45;23.20;65.30
5176;DHT22;2607;50.934;6.934;2023-05-31T10:35:11;23.20;64.90
5176;DHT22;2607;50.934;6.934;2023-05-31T10:37:39;23.30;64.20
5176;DHT22;2607;50.934;6.934;2023-05-31T10:40:17;23.40;63.40
5176;DHT22;2607;50.934;6.934;2023-05-31T10:45:41;23.50;63.10
5176;DHT22;2607;50.934;6.934;2023-05-31T10:50:57;23.70;62.60
5176;DHT22;2607;50.934;6.934;2023-05-31T10:53:32;23.90;61.20
5176;DHT22;2607;50.934;6.934;2023-05-31T10:56:08;23.90;60.70
5176;DHT22;2607;50.934;6.934;2023-05-31T10:58:41;23.90;61.30
5176;DHT22;2607;50.934;6.934;2023-05-31T11:01:12;24.00;59.80
5176;DHT22;2607;50.934;6.934;2023-05-31T11:03:52;24.00;59.70
5176;DHT22;2607;50.934;6.934;2023-05-31T11:06:26;24.00;59.50
5176;DHT22;2607;50.934;6.934;2023-05-31T11:09:11;24.10;60.50
5176;DHT22;2607;50.934;6.934;2023-05-31T11:19:31;24.30;60.30
5176;DHT22;2607;50.934;6.934;2023-05-31T11:21:59;24.50;61.00
5176;DHT22;2607;50.934;6.934;2023-05-31T11:27:00;24.80;60.80
5176;DHT22;2607;50.934;6.934;2023-05-31T11:32:12;24.90;58.40
5176;DHT22;2607;50.934;6.934;2023-05-31T11:34:57;25.10;57.80
5176;DHT22;2607;50.934;6.934;2023-05-31T11:37:27;25.10;57.90
5176;DHT22;2607;50.934;6.934;2023-05-31T11:39:53;25.20;58.30
5176;DHT22;2607;50.934;6.934;2023-05-31T11:42:21;25.40;57.60
5176;DHT22;2607;50.934;6.934;2023-05-31T11:44:46;25.50;57.20
5176;DHT22;2607;50.934;6.934;2023-05-31T11:47:20;25.60;58.30
5176;DHT22;2607;50.934;6.934;2023-05-31T11:49:46;25.70;57.60
5176;DHT22;2607;50.934;6.934;2023-05-31T11:52:19;25.90;56.30
5176;DHT22;2607;50.934;6.934;2023-05-31T11:54:47;26.00;54.40
5176;DHT22;2607;50.934;6.934;2023-05-31T11:57:15;26.10;54.20
5176;DHT22;2607;50.934;6.934;2023-05-31T11:59:42;26.10;54.00
5176;DHT22;2607;50.934;6.934;2023-05-31T12:02:09;26.20;53.90
5176;DHT22;2607;50.934;6.934;2023-05-31T12:04:38;26.40;54.10
5176;DHT22;2607;50.934;6.934;2023-05-31T12:07:05;26.40;54.50
5176;DHT22;2607;50.934;6.934;2023-05-31T12:09:33;26.50;55.40
5176;DHT22;2607;50.934;6.934;2023-05-31T12:11:59;26.60;54.00
5176;DHT22;2607;50.934;6.934;2023-05-31T12:14:26;26.70;53.30
5176;DHT22;2607;50.934;6.934;2023-05-31T12:16:53;26.80;52.40
5176;DHT22;2607;50.934;6.934;2023-05-31T12:19:19;26.80;52.30
5176;DHT22;2607;50.934;6.934;2023-05-31T12:21:45;26.90;52.30
5176;DHT22;2607;50.934;6.934;2023-05-31T12:24:15;27.00;51.00
5176;DHT22;2607;50.934;6.934;2023-05-31T12:26:45;27.00;51.10
5176;DHT22;2607;50.934;6.934;2023-05-31T12:29:11;27.00;51.00
5176;DHT22;2607;50.934;6.934;2023-05-31T12:31:38;27.00;50.80
5176;DHT22;2607;50.934;6.934;2023-05-31T12:34:11;27.00;51.20
5176;DHT22;2607;50.934;6.934;2023-05-31T12:36:41;27.00;50.90
5176;DHT22;2607;50.934;6.934;2023-05-31T12:39:09;27.00;51.40
5176;DHT22;2607;50.934;6.934;2023-05-31T12:41:35;27.00;51.30
5176;DHT22;2607;50.934;6.934;2023-05-31T12:44:00;27.10;51.70
5176;DHT22;2607;50.934;6.934;2023-05-31T12:46:26;27.10;51.70
5176;DHT22;2607;50.934;6.934;2023-05-31T12:48:52;27.20;52.80
5176;DHT22;2607;50.934;6.934;2023-05-31T12:51:21;27.20;52.90
5176;DHT22;2607;50.934;6.934;2023-05-31T12:53:50;27.30;53.50
5176;DHT22;2607;50.934;6.934;2023-05-31T12:56:15;27.40;53.10
5176;DHT22;2607;50.934;6.934;2023-05-31T12:58:42;27.40;50.90
5176;DHT22;2607;50.934;6.934;2023-05-31T13:01:08;27.40;51.40
5176;DHT22;2607;50.934;6.934;2023-05-31T13:03:33;27.30;51.80
5176;DHT22;2607;50.934;6.934;2023-05-31T13:05:59;27.20;50.60
5176;DHT22;2607;50.934;6.934;2023-05-31T13:08:25;27.20;50.60
5176;DHT22;2607;50.934;6.934;2023-05-31T13:10:50;27.10;51.20
5176;DHT22;2607;50.934;6.934;2023-05-31T13:13:16;27.10;51.90
5176;DHT22;2607;50.934;6.934;2023-05-31T13:15:42;27.10;52.90
5176;DHT22;2607;50.934;6.934;2023-05-31T13:18:07;27.10;53.30
5176;DHT22;2607;50.934;6.934;2023-05-31T13:20:33;27.10;53.70
5176;DHT22;2607;50.934;6.934;2023-05-31T13:22:58;27.20;53.40
5176;DHT22;2607;50.934;6.934;2023-05-31T13:25:24;27.20;53.50
5176;DHT22;2607;50.934;6.934;2023-05-31T13:27:49;27.20;54.20
5176;DHT22;2607;50.934;6.934;2023-05-31T13:30:15;27.20;55.00
5176;DHT22;2607;50.934;6.934;2023-05-31T13:32:41;27.20;55.80
5176;DHT22;2607;50.934;6.934;2023-05-31T13:35:08;27.20;55.80
5176;DHT22;2607;50.934;6.934;2023-05-31T13:37:35;27.10;55.90
5176;DHT22;2607;50.934;6.934;2023-05-31T13:40:00;27.10;55.90
5176;DHT22;2607;50.934;6.934;2023-05-31T13:42:27;27.00;55.90
5176;DHT22;2607;50.934;6.934;2023-05-31T13:44:53;27.00;56.60
5176;DHT22;2607;50.934;6.934;2023-05-31T13:47:18;27.00;56.40
5176;DHT22;2607;50.934;6.934;2023-05-31T13:49:44;26.90;56.60
5176;DHT22;2607;50.934;6.934;2023-05-31T13:52:09;26.90;57.20
5176;DHT22;2607;50.934;6.934;2023-05-31T13:54:38;26.90;56.40
5176;DHT22;2607;50.934;6.934;2023-05-31T13:57:04;26.80;56.80
5176;DHT22;2607;50.934;6.934;2023-05-31T13:59:30;26.80;56.70
5176;DHT22;2607;50.934;6.934;2023-05-31T14:01:56;26.70;56.40
5176;DHT22;2607;50.934;6.934;2023-05-31T14:04:22;26.70;55.80
5176;DHT22;2607;50.934;6.934;2023-05-31T14:06:47;26.60;56.40
5176;DHT22;2607;50.934;6.934;2023-05-31T14:09:13;26.70;56.40
5176;DHT22;2607;50.934;6.934;2023-05-31T14:11:38;26.60;56.40
5176;DHT22;2607;50.934;6.934;2023-05-31T14:14:04;26.60;56.50
5176;DHT22;2607;50.934;6.934;2023-05-31T14:16:30;26.60;56.40
5176;DHT22;2607;50.934;6.934;2023-05-31T14:18:55;26.50;56.10
5176;DHT22;2607;50.934;6.934;2023-05-31T14:21:21;26.50;55.90
5176;DHT22;2607;50.934;6.934;2023-05-31T14:23:47;26.60;55.60
5176;DHT22;2607;50.934;6.934;2023-05-31T14:26:12;26.50;55.60
5176;DHT22;2607;50.934;6.934;2023-05-31T14:28:39;26.40;55.90
5176;DHT22;2607;50.934;6.934;2023-05-31T14:31:05;26.40;56.10
5176;DHT22;2607;50.934;6.934;2023-05-31T14:33:30;26.40;56.90
5176;DHT22;2607;50.934;6.934;2023-05-31T14:35:56;26.40;56.20
5176;DHT22;2607;50.934;6.934;2023-05-31T14:38:21;26.40;56.60
5176;DHT22;2607;50.934;6.934;2023-05-31T14:40:47;26.30;56.50
5176;DHT22;2607;50.934;6.934;2023-05-31T14:43:12;26.30;56.60
5176;DHT22;2607;50.934;6.934;2023-05-31T14:45:38;26.40;55.90
5176;DHT22;2607;50.934;6.934;2023-05-31T14:48:04;26.30;56.10
5176;DHT22;2607;50.934;6.934;2023-05-31T14:50:29;26.20;56.70
5176;DHT22;2607;50.934;6.934;2023-05-31T14:52:55;26.20;56.90
5176;DHT22;2607;50.934;6.934;2023-05-31T14:55:20;26.10;57.10
5176;DHT22;2607;50.934;6.934;2023-05-31T14:57:46;26.20;57.30
5176;DHT22;2607;50.934;6.934;2023-05-31T15:00:12;26.30;56.70
5176;DHT22;2607;50.934;6.934;2023-05-31T15:02:38;26.30;56.70
5176;DHT22;2607;50.934;6.934;2023-05-31T15:05:03;26.20;56.90
5176;DHT22;2607;50.934;6.934;2023-05-31T15:07:29;26.30;57.00
5176;DHT22;2607;50.934;6.934;2023-05-31T15:09:55;26.30;56.90
5176;DHT22;2607;50.934;6.934;2023-05-31T15:12:20;26.20;57.70
5176;DHT22;2607;50.934;6.934;2023-05-31T15:14:46;26.20;57.90
5176;DHT22;2607;50.934;6.934;2023-05-31T15:17:11;26.20;57.60
5176;DHT22;2607;50.934;6.934;2023-05-31T15:19:37;26.20;57.80
5176;DHT22;2607;50.934;6.934;2023-05-31T15:22:04;26.20;57.30
5176;DHT22;2607;50.934;6.934;2023-05-31T15:24:29;26.10;57.60
5176;DHT22;2607;50.934;6.934;2023-05-31T15:26:55;26.00;57.60
5176;DHT22;2607;50.934;6.934;2023-05-31T15:29:21;26.10;57.60
5176;DHT22;2607;50.934;6.934;2023-05-31T15:31:46;26.10;57.50
5176;DHT22;2607;50.934;6.934;2023-05-31T15:34:12;26.00;57.70
5176;DHT22;2607;50.934;6.934;2023-05-31T15:36:37;26.00;58.00
5176;DHT22;2607;50.934;6.934;2023-05-31T15:39:03;26.00;57.90
5176;DHT22;2607;50.934;6.934;2023-05-31T15:41:29;25.90;57.80
5176;DHT22;2607;50.934;6.934;2023-05-31T15:43:55;25.90;57.60
5176;DHT22;2607;50.934;6.934;2023-05-31T15:46:22;25.90;58.30
5176;DHT22;2607;50.934;6.934;2023-05-31T15:48:47;25.90;58.40
5176;DHT22;2607;50.934;6.934;2023-05-31T15:51:13;25.90;58.50
5176;DHT22;2607;50.934;6.934;2023-05-31T15:53:38;25.90;58.10
5176;DHT22;2607;50.934;6.934;2023-05-31T15:56:05;25.90;57.90
5176;DHT22;2607;50.934;6.934;2023-05-31T15:58:30;25.90;58.10
5176;DHT22;2607;50.934;6.934;2023-05-31T16:00:56;25.90;58.40
5176;DHT22;2607;50.934;6.934;2023-05-31T16:03:24;25.90;58.30
5176;DHT22;2607;50.934;6.934;2023-05-31T16:05:50;25.90;59.00
5176;DHT22;2607;50.934;6.934;2023-05-31T16:08:16;25.90;58.30
5176;DHT22;2607;50.934;6.934;2023-05-31T16:10:41;26.00;57.90
5176;DHT22;2607;50.934;6.934;2023-05-31T16:13:07;26.00;58.00
5176;DHT22;2607;50.934;6.934;2023-05-31T16:15:34;26.10;57.50
5176;DHT22;2607;50.934;6.934;2023-05-31T16:18:00;26.10;57.60
5176;DHT22;2607;50.934;6.934;2023-05-31T16:20:26;26.00;57.20
5176;DHT22;2607;50.934;6.934;2023-05-31T16:22:51;26.00;57.10
5176;DHT22;2607;50.934;6.934;2023-05-31T16:25:17;25.90;57.50